Sonic Adventure (DX): Overall Rankings

Records: Times | Rings | Scores | Races | Bosses | Freestyle
Leaders: Times | Rings | Scores | Races | Bosses | Freestyle | Overall
Rank Player Percent Points Date Grade
1 Sonicspeedruner 98.3% 285 09-24-16 S
2 Gamepro011 98.2% 302 09-24-16 A
3 DarkPolarNight 96.2% 634 09-24-16 A
4 Jawzun 93.5% 1088 09-24-16 A
5 Dashjump 92.1% 1322 09-24-16 A
6 DarkspinesSonic 90.2% 1630 09-24-16 A
7 Avento128bits 89.9% 1684 09-24-16 A
8 ike6252 89.8% 1702 09-24-16 A
9 F-Man 88.0% 2011 09-24-16 A
10 Coolfansonic 85.5% 2422 09-24-16 A
11 HyperSonic7701 84.7% 2566 09-24-16 A
12 yoshifan 82.9% 2868 09-24-16 A
13 frankoredstrato 82.6% 2908 09-24-16 A
14 TheRealShadnic 82.3% 2956 09-24-16 A
15 francisco 81.7% 3058 09-24-16 A
16 Marth 81.4% 3120 09-24-16 A
17 InferSaime 80.1% 3337 09-24-16 A
18 PfoSonic 79.6% 3411 09-24-16 B
19 Paragod 79.3% 3463 09-24-16 B
20 THC98 78.6% 3580 09-24-16 B
21 Stefan 76.0% 4025 09-24-16 B
22 RPGnutter 73.9% 4381 09-24-16 B
23 bertin 73.7% 4406 09-24-16 B
24 sonicam 71.6% 4759 09-24-16 B
25 drminus 70.4% 4964 09-24-16 B
26 xXMegaManXx 70.3% 4985 09-24-16 B
27 Combo 65.7% 5754 09-24-16 B
28 SkyLights 64.5% 5946 09-24-16 B
29 Diamond 62.4% 6298 09-24-16 B
30 Auriman1 60.5% 6621 09-24-16 B
31 GerbilSoft 60.4% 6638 09-24-16 B
32 OmegaDJ 60.4% 6641 09-24-16 B
33 magnum12 59.6% 6780 09-24-16 C
34 Thorn 57.5% 7131 09-24-16 C
35 P1 Pause 57.3% 7166 09-24-16 C
36 mike89 56.1% 7353 09-24-16 C
37 Groudon199 54.2% 7676 09-24-16 C
38 Dave Cramer 54.2% 7678 09-24-16 C
39 chainchumper 54.1% 7688 09-24-16 C
40 Parax 53.4% 7821 09-24-16 C
41 Shadow Jacky 53.2% 7852 09-24-16 C
42 Psymar 47.9% 8729 09-24-16 C
43 Arch 47.2% 8853 09-24-16 C
44 Chao_Fan 46.4% 8995 09-24-16 C
45 mauserman 45.4% 9153 09-24-16 C
46 Quartz 45.3% 9181 09-24-16 C
47 teamblackarms 44.5% 9316 09-24-16 C
48 Psyknux 43.4% 9489 09-24-16 C
49 James_Bertolli 43.3% 9506 09-24-16 C
50 NintenDan 43.0% 9559 09-24-16 C
51 Webber3000 42.5% 9638 09-24-16 C
52 Turbos 42.4% 9663 09-24-16 C
53 Cream147 41.9% 9736 09-24-16 C
54 Ring Rush 41.9% 9737 09-24-16 C
55 videogamemaster777 41.9% 9752 09-24-16 C
56 Siavash Tazari 41.6% 9794 09-24-16 C
57 Fr3nZy 41.5% 9814 09-24-16 C
58 buddychaos0415 41.1% 9877 09-24-16 C
59 SadisticMystic 40.3% 10014 09-24-16 C
60 eggFL 39.7% 10109 09-24-16 D
61 Redd 38.8% 10269 09-24-16 D
62 SB737 38.2% 10371 09-24-16 D
63 supersonic465 37.4% 10504 09-24-16 D
64 supersonicfan 37.0% 10559 09-24-16 D
65 FuzZerd 35.8% 10771 09-24-16 D
66 Aitamen 35.3% 10852 09-24-16 D
67 elecmouse101 35.0% 10903 09-24-16 D
68 danieldude 34.8% 10934 09-24-16 D
69 metanightmare22 33.8% 11110 09-24-16 D
70 Austinf 33.7% 11121 09-24-16 D
71 dabestgamer 33.4% 11178 09-24-16 D
72 Cyan Ryan 33.3% 11187 09-24-16 D
73 MiStEr_ShAoLiN 33.2% 11210 09-24-16 D
74 Andrea Ritsu 32.3% 11353 09-24-16 D
75 itsPersonnal 31.9% 11415 09-24-16 D
76 Cybrax 31.1% 11549 09-24-16 D
77 SilvertheAlmighty 31.1% 11553 09-24-16 D
78 VMU Player Banned 29.1% 11892 09-24-16 D
79 Staf 28.9% 11933 09-24-16 D
80 Nimrod 28.7% 11953 09-24-16 D
81 ethmar 28.6% 11983 09-24-16 D
82 Omega Rafael Santos 28.5% 12001 09-24-16 D
83 The T 28.4% 12005 09-24-16 D
84 EngiNerd 28.2% 12038 09-24-16 D
85 lordmetalsonic 27.7% 12133 09-24-16 D
86 Hipertails12 27.1% 12232 09-24-16 D
87 welldooder64 27.1% 12234 09-24-16 D
88 GreatStar 26.8% 12282 09-24-16 D
89 The Great Lord Mick 26.7% 12292 09-24-16 D
90 Sondow 26.7% 12299 09-24-16 D
91 LinksDarkArrows 26.5% 12326 09-24-16 D
92 Mastakirby 26.5% 12336 09-24-16 D
93 Skylace 25.5% 12505 09-24-16 D
94 a_moustache 24.4% 12676 09-24-16 D
95 Rolken 24.1% 12740 09-24-16 D
96 Kogen Player Banned 22.3% 13034 09-24-16 D
97 Xia 22.2% 13047 09-24-16 D
98 Spinballwizard 22.2% 13050 09-24-16 D
99 Twilisailor 21.8% 13122 09-24-16 D
100 f0rever_zer0 21.8% 13125 09-24-16 D
101 Cutiefox 21.5% 13161 09-24-16 D
102 Don 21.5% 13170 09-24-16 D
103 Game_Complete 21.4% 13179 09-24-16 D
104 Miles9999 21.3% 13197 09-24-16 D
105 andres430 20.9% 13264 09-24-16 D
106 Cruizer 20.7% 13308 09-24-16 D
107 iSonicKid2K 20.6% 13321 09-24-16 D
108 SADXTryHard 20.3% 13374 09-24-16 D
109 GarnetPrincess 19.9% 13445 09-24-16 E
110 AxlThunder 19.2% 13562 09-24-16 E
111 knuckles_sonic8 18.7% 13631 09-24-16 E
112 KinkyCadence 18.3% 13699 09-24-16 E
112 The Knuckles Chao 18.3% 13699 09-24-16 E
114 Team_Yoshi 18.0% 13757 09-24-16 E
115 LittleBigness 17.9% 13768 09-24-16 E
115 Termon 17.9% 13768 09-24-16 E
117 SonicWinDX 17.8% 13797 09-24-16 E
118 FoxBoy 17.7% 13812 09-24-16 E
119 Drakodan 16.9% 13934 09-24-16 E
120 Sonic Singularity 15.9% 14107 09-24-16 E
121 Pokemonmaster888 15.7% 14135 09-24-16 E
122 BigAL49 14.8% 14294 09-24-16 E
123 MPit08 14.6% 14325 09-24-16 E
124 SilverSonic 14.6% 14327 09-24-16 E
125 WeegeeZV 14.3% 14371 09-24-16 E
126 koinu93 14.1% 14407 09-24-16 E
127 Mo Player Banned 14.1% 14409 09-24-16 E
128 Cod4Scopes 13.8% 14465 09-24-16 E
129 HyperSonic64 13.8% 14469 09-24-16 E
130 booo95 13.6% 14494 09-24-16 E
131 Jerzia 13.4% 14521 09-24-16 E
132 paulie9990 13.3% 14540 09-24-16 E
133 Chawkk 13.3% 14541 09-24-16 E
134 SuperSonic101 13.1% 14585 09-24-16 E
135 Hunters13 13.0% 14588 09-24-16 E
136 Maxinfamily 13.0% 14602 09-24-16 E
137 Kanimayo_Jp 12.7% 14649 09-24-16 E
138 LilZero 12.7% 14654 09-24-16 E
139 BrokenArthritis 12.6% 14670 09-24-16 E
140 PsyBorg 12.4% 14697 09-24-16 E
141 Flying Fox 12.4% 14698 09-24-16 E
142 Therio 12.1% 14744 09-24-16 E
143 sonicspeed 12.0% 14768 09-24-16 E
144 douglas 11.8% 14793 09-24-16 E
145 Matt_TY 11.5% 14854 09-24-16 E
146 thewaytodawnnn 11.4% 14865 09-24-16 E
147 Cooljay 10.9% 14944 09-24-16 E
148 SuperBlitzCraig 10.8% 14964 09-24-16 E
149 joecoolgames 10.7% 14975 09-24-16 E
150 SeaWolf 10.7% 14982 09-24-16 E
151 videogamer1014 10.5% 15017 09-24-16 E
152 AC-Tygo 10.3% 15056 09-24-16 E
153 welshmoose05 10.2% 15067 09-24-16 E
154 OddCook 10.0% 15102 09-24-16 E
155 crazy1993 9.9% 15119 09-24-16 E
155 TFEC Headshot 9.9% 15119 09-24-16 E
157 Mcshuggets 9.7% 15148 09-24-16 E
158 N 9.4% 15197 09-24-16 E
159 niscool 9.4% 15198 09-24-16 E
160 imazor017 9.4% 15207 09-24-16 E
161 Mariobutch 9.2% 15234 09-24-16 E
161 nuckrieg 9.2% 15234 09-24-16 E
163 SonicAD 9.2% 15237 09-24-16 E
164 SirTobbii 9.1% 15253 09-24-16 E
165 Shadowthegreat 9.1% 15255 09-24-16 E
166 superjupi 9.0% 15260 09-24-16 E
167 sonamyfan666 8.7% 15313 09-24-16 E
168 iarebored 8.6% 15326 09-24-16 E
169 SaviourDC 8.6% 15339 09-24-16 E
169 SonicKnuckles 8.6% 15339 09-24-16 E
171 Werey 8.3% 15391 09-24-16 E
172 adf 8.2% 15397 09-24-16 E
173 Megaman EXE565 8.0% 15432 09-24-16 E
174 ArcticDragon 7.6% 15496 09-24-16 E
175 Platformer 7.6% 15503 09-24-16 E
176 timpkmn89 7.5% 15522 09-24-16 E
177 FocusSight64 7.3% 15546 09-24-16 E
178 Swift Hobo 7.3% 15548 09-24-16 E
179 wheatrich 7.3% 15554 09-24-16 E
180 Rickyman48 7.1% 15578 09-24-16 E
181 KitsuneYamaro 7.0% 15597 09-24-16 E
182 Powerjohn25 6.9% 15618 09-24-16 E
183 Triseena 6.8% 15634 09-24-16 E
184 SonataSpinDash 6.7% 15658 09-24-16 E
185 CyberShadow 6.5% 15680 09-24-16 E
186 dShadow 6.5% 15681 09-24-16 E
187 slade23 6.5% 15687 09-24-16 E
187 Starlight Sable 6.5% 15687 09-24-16 E
189 Destroyer121121 6.5% 15693 09-24-16 E
190 IsisDazs 6.3% 15712 09-24-16 E
191 BlankTH 6.2% 15743 09-24-16 E
192 Monkeh 6.0% 15769 09-24-16 E
193 Badlex727 6.0% 15777 09-24-16 E
194 SonicU260 5.8% 15797 09-24-16 E
195 Richied 5.8% 15799 09-24-16 E
196 DaDude 5.7% 15816 09-24-16 E
197 Vicklaw 5.7% 15828 09-24-16 E
198 sonicd5 5.6% 15840 09-24-16 E
198 Zip 5.6% 15840 09-24-16 E
200 ALundstrom10 5.2% 15902 09-24-16 E
201 tal39h 5.2% 15911 09-24-16 E
202 VeritasDL 5.1% 15915 09-24-16 E
203 Kirbymon30 5.1% 15922 09-24-16 E
204 soniccoloursunleashed 4.9% 15948 09-24-16 E
205 Drflash55 4.9% 15951 09-24-16 E
206 Bass 4.8% 15967 09-24-16 E
207 neaolas 4.7% 15982 09-24-16 E
208 Yish 4.7% 15990 09-24-16 E
209 zapp 4.6% 15998 09-24-16 E
210 superiorsonic 4.6% 16006 09-24-16 E
210 UninspiredUsername 4.6% 16006 09-24-16 E
212 Sonicsuperstar1 4.6% 16012 09-24-16 E
213 gamefreak1292 4.5% 16024 09-24-16 E
214 Chaos_Overlord 4.2% 16072 09-24-16 E
215 TakaRikka 4.1% 16093 09-24-16 E
216 Valfore 4.0% 16106 09-24-16 E
217 ShinigamiMachine 3.8% 16134 09-24-16 E
218 Regano1000 3.8% 16146 09-24-16 E
219 MK 3.6% 16168 09-24-16 E
220 Ace747 3.6% 16176 09-24-16 E
221 Illidan 3.2% 16243 09-24-16 E
222 HHNNBBHHN 3.2% 16246 09-24-16 E
223 Venick409 3.1% 16252 09-24-16 E
224 Brian_pso 3.1% 16254 09-24-16 E
225 nman36 3.1% 16255 09-24-16 E
226 Sithwarrior26 3.1% 16256 09-24-16 E
227 Egor305 3.0% 16279 09-24-16 E
228 ingx24 3.0% 16282 09-24-16 E
229 TheChaosEmeraIds 2.9% 16286 09-24-16 E
230 Nickson98 2.9% 16291 09-24-16 E
230 SkyBon 2.9% 16291 09-24-16 E
232 Fozer 2.8% 16305 09-24-16 E
233 FSSRandomvids 2.8% 16312 09-24-16 E
234 Colomb_30 2.8% 16313 09-24-16 E
235 dekki1234 2.7% 16319 09-24-16 E
236 Aiko 2.7% 16329 09-24-16 E
237 sonic29887 2.7% 16331 09-24-16 E
238 TheUltraBlur 2.6% 16335 09-24-16 E
239 1stKirbyever 2.6% 16339 09-24-16 E
240 TimTH 2.6% 16348 09-24-16 E
241 Th4tN1nj4Turtl3 2.4% 16378 09-24-16 E
242 Cort_pso 2.3% 16386 09-24-16 E
243 Doom-9 2.3% 16394 09-24-16 E
243 ieatatsonic 2.3% 16394 09-24-16 E
245 Mariosonic15 2.3% 16397 09-24-16 E
246 HermitHelmet 2.1% 16418 09-24-16 E
246 MStitomix 2.1% 16418 09-24-16 E
248 Artie 2.1% 16433 09-24-16 E
249 Got4n 2.0% 16434 09-24-16 E
250 SuperSonic71087 2.0% 16440 09-24-16 E
251 Jose_15 2.0% 16446 09-24-16 E
252 Questionguy555 1.9% 16452 09-24-16 E
253 SuperSonicfan9595 1.9% 16463 09-24-16 E
254 djmat 1.8% 16468 09-24-16 E
255 sonicandamy Player Banned 1.7% 16488 09-24-16 E
256 LancexExWx 1.7% 16495 09-24-16 E
257 Paixii 1.7% 16496 09-24-16 E
258 Heroes_Hater 1.7% 16499 09-24-16 E
258 son1cgu1tar 1.7% 16499 09-24-16 E
260 BallzeH 1.6% 16511 09-24-16 E
261 Mankster101 1.6% 16517 09-24-16 E
262 BecauseWarAnvil 1.5% 16519 09-24-16 E
263 Jamixesa 1.5% 16522 09-24-16 E
264 Crydio 1.5% 16531 09-24-16 E
265 Shanekilz 1.4% 16537 09-24-16 E
266 SpiritDragon1995 1.4% 16538 09-24-16 E
267 ReuelBrony 1.4% 16544 09-24-16 E
268 MarewBFN 1.3% 16551 09-24-16 E
269 stanski 1.3% 16552 09-24-16 E
270 Sonique Hedgehog 1.3% 16558 09-24-16 E
271 p0ker 1.3% 16565 09-24-16 E
272 Blue Infamy 1.2% 16569 09-24-16 E
273 ErrortheCucco 1.2% 16580 09-24-16 E
274 Rikum22 1.2% 16583 09-24-16 E
275 Arthas 1.1% 16585 09-24-16 E
276 sonic1001 1.1% 16591 09-24-16 E
277 AJSIV 1.1% 16596 09-24-16 E
278 syco1098 1.1% 16598 09-24-16 E
278 WingedInsignia 1.1% 16598 09-24-16 E
280 Sonic the Hedgehod16 1.1% 16601 09-24-16 E
281 Calfd 1.0% 16608 09-24-16 E
282 sonicfan9 1.0% 16609 09-24-16 E
283 BlackArmsShadow 0.9% 16619 09-24-16 E
284 themachoman202 0.9% 16622 09-24-16 E
285 shadowblast63 Player Banned 0.9% 16629 09-24-16 E
286 Greham Adelphis 0.9% 16631 09-24-16 E
287 Fivavoa 0.9% 16632 09-24-16 E
287 Mr. Jones 0.9% 16632 09-24-16 E
289 darkstarblaze 0.9% 16633 09-24-16 E
290 MastaToken 0.9% 16634 09-24-16 E
291 arcfx1985 0.8% 16635 09-24-16 E
292 Ben1502 0.8% 16636 09-24-16 E
293 ptorflaxendrosis 0.8% 16637 09-24-16 E
294 TommyeAsY 0.8% 16638 09-24-16 E
295 FlandreScarlet9999vr 0.8% 16642 09-24-16 E
296 Gvozdevik 0.8% 16643 09-24-16 E
297 Knuckles 0.8% 16645 09-24-16 E
297 Zeldocto 0.8% 16645 09-24-16 E
299 BeeAwwb 0.8% 16649 09-24-16 E
300 KaM Mark MaK 0.8% 16650 09-24-16 E
301 ShadouZaHejjihoggu 0.7% 16657 09-24-16 E
302 Sonic The Star 0.7% 16664 09-24-16 E
303 darkersupershadic 0.7% 16665 09-24-16 E
303 Sonic62 0.7% 16665 09-24-16 E
305 Sarger001 0.7% 16668 09-24-16 E
306 dragondragon18 0.6% 16670 09-24-16 E
307 Grady219 0.6% 16671 09-24-16 E
308 Shadygamerfreak 0.6% 16672 09-24-16 E
308 Sogeking 0.6% 16672 09-24-16 E
308 SonicK100 0.6% 16672 09-24-16 E
311 Jawaah 0.6% 16677 09-24-16 E
312 Antek 0.6% 16681 09-24-16 E
313 Klaus 0.6% 16683 09-24-16 E
314 SilverK 0.6% 16684 09-24-16 E
315 BioShadow 0.5% 16686 09-24-16 E
316 SpinDashMaster 0.5% 16691 09-24-16 E
317 Videogamer123 0.5% 16694 09-24-16 E
318 oTaiIilLsS 0.4% 16707 09-24-16 E
319 isaihtb11 0.4% 16708 09-24-16 E
320 OhNoes! 0.4% 16710 09-24-16 E
321 zaktu40 0.4% 16711 09-24-16 E
322 gaara1234 0.4% 16714 09-24-16 E
322 Mad Andy 0.4% 16714 09-24-16 E
322 S-MS32X-S 0.4% 16714 09-24-16 E
325 gamed00d 0.4% 16718 09-24-16 E
326 Mister_Slick 0.3% 16725 09-24-16 E
327 Sonic06Fan 0.3% 16728 09-24-16 E
328 Rush Hero 0.3% 16730 09-24-16 E
329 SonicMega167 0.3% 16735 09-24-16 E
330 Iwannabelink 0.2% 16737 09-24-16 E
331 sonknuck23 0.2% 16740 09-24-16 E
332 DanielTheFalcon 0.2% 16748 09-24-16 E
332 gamer1245 0.2% 16748 09-24-16 E
334 Burningskull123 0.1% 16754 09-24-16 E
335 Sonicontherun 0.1% 16765 09-24-16 E
336 Lil_Dude 0.1% 16769 09-24-16 E
337 antiwwe 0.0% 16771 09-24-16 E
338 Genuine Hedgehog 0.0% 16775 09-24-16 E
339 Cbwade15 0.0% 16776 09-24-16 E
340 Tyrouble 0.0% 16779 09-24-16 E
341 MegabombBlade 0.0% 16786 09-24-16 E
341 neji_hyuuga 0.0% 16786 09-24-16 E
341 Over 0.0% 16786 09-24-16 E
341 sdj6707 Player Banned 0.0% 16786 09-24-16 E
341 Tran Sonic Fan Player Banned 0.0% 16786 09-24-16 E

This page is using the New Data Table System. [FUTURE]


-- Back to Normal Skin --
Game ID: 3 | Category ID: 10
Hits: 67,687 | Hits This Month: 141 | DB Calls: 16 | Mem Usage: 5.46 MB | Time: 0.26s | Printable

The Sonic Center v3.9
Copyright 2003-2011 by The Sonic Center Team.